sensor_id;sensor_type;location;lat;lon;timestamp;temperature;humidity
21805;DHT22;11064;47.102;15.452;2023-04-03T04:03:00;3.50;88.30
21805;DHT22;11064;47.102;15.452;2023-04-03T04:05:26;3.60;88.00
21805;DHT22;11064;47.102;15.452;2023-04-03T04:07:52;3.60;87.40
21805;DHT22;11064;47.102;15.452;2023-04-03T04:10:18;3.60;87.80
21805;DHT22;11064;47.102;15.452;2023-04-03T04:12:44;3.50;87.40
21805;DHT22;11064;47.102;15.452;2023-04-03T04:15:10;3.60;87.70
21805;DHT22;11064;47.102;15.452;2023-04-03T04:17:36;3.60;87.30
21805;DHT22;11064;47.102;15.452;2023-04-03T04:20:03;3.60;86.90
21805;DHT22;11064;47.102;15.452;2023-04-03T04:22:30;3.70;85.60
21805;DHT22;11064;47.102;15.452;2023-04-03T04:24:56;3.70;85.30
21805;DHT22;11064;47.102;15.452;2023-04-03T04:27:22;3.70;85.60
21805;DHT22;11064;47.102;15.452;2023-04-03T04:29:48;3.70;87.90
21805;DHT22;11064;47.102;15.452;2023-04-03T04:32:14;3.70;86.70
21805;DHT22;11064;47.102;15.452;2023-04-03T04:34:40;3.70;86.00
21805;DHT22;11064;47.102;15.452;2023-04-03T04:37:05;3.70;86.50
21805;DHT22;11064;47.102;15.452;2023-04-03T04:39:31;3.70;89.40
21805;DHT22;11064;47.102;15.452;2023-04-03T04:41:57;3.60;89.10
21805;DHT22;11064;47.102;15.452;2023-04-03T04:44:23;3.60;87.80
21805;DHT22;11064;47.102;15.452;2023-04-03T04:46:49;3.60;90.20
21805;DHT22;11064;47.102;15.452;2023-04-03T04:49:14;3.60;87.80
21805;DHT22;11064;47.102;15.452;2023-04-03T04:51:40;3.60;87.60
21805;DHT22;11064;47.102;15.452;2023-04-03T04:54:06;3.70;86.40
21805;DHT22;11064;47.102;15.452;2023-04-03T04:56:32;3.80;85.20
21805;DHT22;11064;47.102;15.452;2023-04-03T04:58:58;3.80;86.40
21805;DHT22;11064;47.102;15.452;2023-04-03T05:01:24;3.80;87.20
21805;DHT22;11064;47.102;15.452;2023-04-03T05:03:50;3.70;87.70
21805;DHT22;11064;47.102;15.452;2023-04-03T05:06:16;3.80;87.90
21805;DHT22;11064;47.102;15.452;2023-04-03T05:08:42;3.80;87.90
21805;DHT22;11064;47.102;15.452;2023-04-03T05:11:07;3.80;87.40
21805;DHT22;11064;47.102;15.452;2023-04-03T05:13:33;3.90;87.90
21805;DHT22;11064;47.102;15.452;2023-04-03T05:15:59;4.00;86.20
21805;DHT22;11064;47.102;15.452;2023-04-03T05:18:25;4.00;87.10
21805;DHT22;11064;47.102;15.452;2023-04-03T05:20:51;4.00;86.00
21805;DHT22;11064;47.102;15.452;2023-04-03T05:23:17;4.10;88.10
21805;DHT22;11064;47.102;15.452;2023-04-03T05:25:43;4.20;86.00
21805;DHT22;11064;47.102;15.452;2023-04-03T05:28:11;4.20;85.80
21805;DHT22;11064;47.102;15.452;2023-04-03T05:30:37;4.20;85.50
21805;DHT22;11064;47.102;15.452;2023-04-03T05:33:03;4.20;85.30
21805;DHT22;11064;47.102;15.452;2023-04-03T05:35:29;4.30;86.00
21805;DHT22;11064;47.102;15.452;2023-04-03T05:37:55;4.40;85.10
21805;DHT22;11064;47.102;15.452;2023-04-03T05:40:22;4.40;83.80
21805;DHT22;11064;47.102;15.452;2023-04-03T05:42:48;4.50;84.00
21805;DHT22;11064;47.102;15.452;2023-04-03T05:45:14;4.50;83.10
21805;DHT22;11064;47.102;15.452;2023-04-03T05:47:40;4.50;83.40
21805;DHT22;11064;47.102;15.452;2023-04-03T05:50:06;4.50;83.10
21805;DHT22;11064;47.102;15.452;2023-04-03T05:52:36;4.50;83.10
21805;DHT22;11064;47.102;15.452;2023-04-03T05:55:04;4.60;83.50
21805;DHT22;11064;47.102;15.452;2023-04-03T05:57:29;4.70;83.20
21805;DHT22;11064;47.102;15.452;2023-04-03T05:59:55;4.70;81.80
21805;DHT22;11064;47.102;15.452;2023-04-03T06:02:23;4.80;83.60
21805;DHT22;11064;47.102;15.452;2023-04-03T06:04:49;4.80;82.80
21805;DHT22;11064;47.102;15.452;2023-04-03T06:07:21;4.90;81.60
21805;DHT22;11064;47.102;15.452;2023-04-03T06:09:50;5.10;82.00
21805;DHT22;11064;47.102;15.452;2023-04-03T06:12:17;5.20;81.00
21805;DHT22;11064;47.102;15.452;2023-04-03T06:14:43;5.30;80.40
21805;DHT22;11064;47.102;15.452;2023-04-03T06:17:09;5.50;81.10
21805;DHT22;11064;47.102;15.452;2023-04-03T06:19:36;5.50;81.80
21805;DHT22;11064;47.102;15.452;2023-04-03T06:22:02;5.60;79.00
21805;DHT22;11064;47.102;15.452;2023-04-03T06:24:28;5.60;78.80
21805;DHT22;11064;47.102;15.452;2023-04-03T06:26:54;5.60;80.00
21805;DHT22;11064;47.102;15.452;2023-04-03T06:29:20;5.60;79.70
21805;DHT22;11064;47.102;15.452;2023-04-03T06:31:47;5.50;79.30
21805;DHT22;11064;47.102;15.452;2023-04-03T06:34:13;5.50;79.80
21805;DHT22;11064;47.102;15.452;2023-04-03T06:36:40;5.60;80.60
21805;DHT22;11064;47.102;15.452;2023-04-03T06:39:06;6.00;78.80
21805;DHT22;11064;47.102;15.452;2023-04-03T06:41:33;6.10;75.60
21805;DHT22;11064;47.102;15.452;2023-04-03T06:43:58;6.00;76.20
21805;DHT22;11064;47.102;15.452;2023-04-03T06:46:26;6.00;76.20
21805;DHT22;11064;47.102;15.452;2023-04-03T06:48:52;6.00;77.00
21805;DHT22;11064;47.102;15.452;2023-04-03T06:51:25;6.10;78.00
21805;DHT22;11064;47.102;15.452;2023-04-03T06:53:53;6.20;78.20
21805;DHT22;11064;47.102;15.452;2023-04-03T06:56:20;6.10;76.70
21805;DHT22;11064;47.102;15.452;2023-04-03T06:58:46;6.10;77.50
21805;DHT22;11064;47.102;15.452;2023-04-03T07:01:15;6.20;76.70
21805;DHT22;11064;47.102;15.452;2023-04-03T07:03:42;6.20;76.60
21805;DHT22;11064;47.102;15.452;2023-04-03T07:06:11;6.20;75.50
21805;DHT22;11064;47.102;15.452;2023-04-03T07:08:38;6.10;75.10
21805;DHT22;11064;47.102;15.452;2023-04-03T07:11:04;5.90;75.00
21805;DHT22;11064;47.102;15.452;2023-04-03T07:13:30;5.70;75.00
21805;DHT22;11064;47.102;15.452;2023-04-03T07:15:56;5.70;76.00
21805;DHT22;11064;47.102;15.452;2023-04-03T07:18:22;5.80;75.40
21805;DHT22;11064;47.102;15.452;2023-04-03T07:20:49;5.70;75.90
21805;DHT22;11064;47.102;15.452;2023-04-03T07:23:15;5.60;77.40
21805;DHT22;11064;47.102;15.452;2023-04-03T07:25:46;5.60;76.40
21805;DHT22;11064;47.102;15.452;2023-04-03T07:28:12;5.70;77.00
21805;DHT22;11064;47.102;15.452;2023-04-03T07:30:50;5.80;76.00
21805;DHT22;11064;47.102;15.452;2023-04-03T07:33:18;6.00;76.00
21805;DHT22;11064;47.102;15.452;2023-04-03T07:35:45;6.00;74.90
21805;DHT22;11064;47.102;15.452;2023-04-03T07:38:11;6.20;73.80
21805;DHT22;11064;47.102;15.452;2023-04-03T07:40:38;6.30;73.10
21805;DHT22;11064;47.102;15.452;2023-04-03T07:43:05;6.30;72.60
21805;DHT22;11064;47.102;15.452;2023-04-03T07:45:31;6.50;72.30
21805;DHT22;11064;47.102;15.452;2023-04-03T07:47:57;6.60;71.80
21805;DHT22;11064;47.102;15.452;2023-04-03T07:50:23;6.60;70.80
21805;DHT22;11064;47.102;15.452;2023-04-03T07:52:49;6.50;70.30
21805;DHT22;11064;47.102;15.452;2023-04-03T07:55:16;6.30;70.90
21805;DHT22;11064;47.102;15.452;2023-04-03T07:57:42;6.00;69.90
21805;DHT22;11064;47.102;15.452;2023-04-03T08:00:08;5.90;71.00
21805;DHT22;11064;47.102;15.452;2023-04-03T08:02:35;5.90;71.20
21805;DHT22;11064;47.102;15.452;2023-04-03T08:05:00;6.20;71.70
21805;DHT22;11064;47.102;15.452;2023-04-03T08:07:26;6.30;70.90
21805;DHT22;11064;47.102;15.452;2023-04-03T08:09:52;6.30;68.40
21805;DHT22;11064;47.102;15.452;2023-04-03T08:12:18;6.30;68.10
21805;DHT22;11064;47.102;15.452;2023-04-03T08:14:44;6.30;68.10
21805;DHT22;11064;47.102;15.452;2023-04-03T08:17:10;6.40;69.10
21805;DHT22;11064;47.102;15.452;2023-04-03T08:19:39;6.70;68.40
21805;DHT22;11064;47.102;15.452;2023-04-03T08:22:06;7.20;68.60
21805;DHT22;11064;47.102;15.452;2023-04-03T08:24:33;7.50;65.00
21805;DHT22;11064;47.102;15.452;2023-04-03T08:27:00;7.40;65.30
21805;DHT22;11064;47.102;15.452;2023-04-03T08:29:26;7.30;64.50
21805;DHT22;11064;47.102;15.452;2023-04-03T08:31:52;7.40;64.80
21805;DHT22;11064;47.102;15.452;2023-04-03T08:34:19;7.20;65.50
21805;DHT22;11064;47.102;15.452;2023-04-03T08:36:45;7.20;64.00
21805;DHT22;11064;47.102;15.452;2023-04-03T08:39:11;7.00;63.70
21805;DHT22;11064;47.102;15.452;2023-04-03T08:41:41;7.20;63.30
21805;DHT22;11064;47.102;15.452;2023-04-03T08:47:28;7.00;63.90
21805;DHT22;11064;47.102;15.452;2023-04-03T08:50:01;7.20;65.80
21805;DHT22;11064;47.102;15.452;2023-04-03T08:52:41;7.60;60.80
21805;DHT22;11064;47.102;15.452;2023-04-03T08:55:33;7.50;59.60
21805;DHT22;11064;47.102;15.452;2023-04-03T08:58:03;7.00;59.30
21805;DHT22;11064;47.102;15.452;2023-04-03T09:00:40;7.30;60.90
21805;DHT22;11064;47.102;15.452;2023-04-03T09:03:13;7.20;58.80
21805;DHT22;11064;47.102;15.452;2023-04-03T09:10:46;6.40;59.50
21805;DHT22;11064;47.102;15.452;2023-04-03T09:16:06;6.30;58.20
21805;DHT22;11064;47.102;15.452;2023-04-03T09:18:45;6.20;59.10
21805;DHT22;11064;47.102;15.452;2023-04-03T09:21:25;6.20;59.20
21805;DHT22;11064;47.102;15.452;2023-04-03T09:23:56;6.20;58.80
21805;DHT22;11064;47.102;15.452;2023-04-03T09:26:36;6.20;58.60
21805;DHT22;11064;47.102;15.452;2023-04-03T09:29:08;6.30;59.00
21805;DHT22;11064;47.102;15.452;2023-04-03T09:31:39;6.40;59.30
21805;DHT22;11064;47.102;15.452;2023-04-03T09:34:27;6.50;59.50
21805;DHT22;11064;47.102;15.452;2023-04-03T09:36:55;6.70;59.30
21805;DHT22;11064;47.102;15.452;2023-04-03T09:39:27;6.60;58.80
21805;DHT22;11064;47.102;15.452;2023-04-03T09:41:58;6.80;58.10
21805;DHT22;11064;47.102;15.452;2023-04-03T09:44:28;6.60;57.40
21805;DHT22;11064;47.102;15.452;2023-04-03T09:46:54;6.50;58.00
21805;DHT22;11064;47.102;15.452;2023-04-03T09:49:19;6.60;58.30
21805;DHT22;11064;47.102;15.452;2023-04-03T09:51:45;6.90;57.60
21805;DHT22;11064;47.102;15.452;2023-04-03T09:54:38;7.00;57.80
21805;DHT22;11064;47.102;15.452;2023-04-03T09:57:13;7.00;58.20
21805;DHT22;11064;47.102;15.452;2023-04-03T09:59:57;6.80;57.50
21805;DHT22;11064;47.102;15.452;2023-04-03T10:02:38;6.80;58.60
21805;DHT22;11064;47.102;15.452;2023-04-03T10:05:26;7.00;57.80
21805;DHT22;11064;47.102;15.452;2023-04-03T10:07:52;7.40;57.40
21805;DHT22;11064;47.102;15.452;2023-04-03T10:10:32;7.60;57.40
21805;DHT22;11064;47.102;15.452;2023-04-03T10:13:18;8.00;57.40
21805;DHT22;11064;47.102;15.452;2023-04-03T10:15:51;8.10;55.70
21805;DHT22;11064;47.102;15.452;2023-04-03T10:27:59;7.90;56.40
21805;DHT22;11064;47.102;15.452;2023-04-03T10:32:53;8.00;57.50
21805;DHT22;11064;47.102;15.452;2023-04-03T10:35:42;8.20;57.40
21805;DHT22;11064;47.102;15.452;2023-04-03T10:38:26;8.40;57.20
21805;DHT22;11064;47.102;15.452;2023-04-03T10:41:23;8.20;55.90
21805;DHT22;11064;47.102;15.452;2023-04-03T10:47:06;8.30;57.00
21805;DHT22;11064;47.102;15.452;2023-04-03T10:55:38;7.60;57.20
21805;DHT22;11064;47.102;15.452;2023-04-03T10:58:41;7.40;57.80
21805;DHT22;11064;47.102;15.452;2023-04-03T11:01:16;7.40;57.60
21805;DHT22;11064;47.102;15.452;2023-04-03T11:03:47;7.40;58.30
21805;DHT22;11064;47.102;15.452;2023-04-03T11:06:18;7.40;58.10
21805;DHT22;11064;47.102;15.452;2023-04-03T11:08:58;7.20;56.40
21805;DHT22;11064;47.102;15.452;2023-04-03T11:11:30;7.40;57.40
21805;DHT22;11064;47.102;15.452;2023-04-03T11:16:40;7.30;57.20
21805;DHT22;11064;47.102;15.452;2023-04-03T11:21:57;7.20;56.90
21805;DHT22;11064;47.102;15.452;2023-04-03T11:24:29;7.20;57.20
21805;DHT22;11064;47.102;15.452;2023-04-03T11:26:58;7.60;57.50
21805;DHT22;11064;47.102;15.452;2023-04-03T11:29:32;7.60;56.40
21805;DHT22;11064;47.102;15.452;2023-04-03T11:34:47;7.60;56.40
21805;DHT22;11064;47.102;15.452;2023-04-03T11:37:39;7.40;56.30
21805;DHT22;11064;47.102;15.452;2023-04-03T11:40:08;7.50;55.30
21805;DHT22;11064;47.102;15.452;2023-04-03T11:42:49;7.60;55.60
21805;DHT22;11064;47.102;15.452;2023-04-03T11:50:47;7.80;56.20
21805;DHT22;11064;47.102;15.452;2023-04-03T11:58:29;7.80;57.00
21805;DHT22;11064;47.102;15.452;2023-04-03T12:00:59;8.10;55.40
21805;DHT22;11064;47.102;15.452;2023-04-03T12:16:32;8.40;53.30
21805;DHT22;11064;47.102;15.452;2023-04-03T12:37:57;8.10;54.20
21805;DHT22;11064;47.102;15.452;2023-04-03T12:40:43;7.70;53.50
21805;DHT22;11064;47.102;15.452;2023-04-03T12:48:55;7.70;53.90
21805;DHT22;11064;47.102;15.452;2023-04-03T12:51:31;8.00;53.60
21805;DHT22;11064;47.102;15.452;2023-04-03T12:59:41;8.10;53.70
21805;DHT22;11064;47.102;15.452;2023-04-03T13:04:46;7.90;54.60
21805;DHT22;11064;47.102;15.452;2023-04-03T13:07:29;7.90;54.80
21805;DHT22;11064;47.102;15.452;2023-04-03T13:12:35;7.50;54.60
21805;DHT22;11064;47.102;15.452;2023-04-03T13:15:14;7.30;54.50
21805;DHT22;11064;47.102;15.452;2023-04-03T13:17:42;7.10;55.40
21805;DHT22;11064;47.102;15.452;2023-04-03T13:23:05;7.20;55.70
21805;DHT22;11064;47.102;15.452;2023-04-03T13:25:34;7.40;55.70
21805;DHT22;11064;47.102;15.452;2023-04-03T13:28:02;7.70;55.00
21805;DHT22;11064;47.102;15.452;2023-04-03T13:30:34;7.50;54.10
21805;DHT22;11064;47.102;15.452;2023-04-03T13:33:03;7.20;56.00
21805;DHT22;11064;47.102;15.452;2023-04-03T13:35:39;7.30;55.40
21805;DHT22;11064;47.102;15.452;2023-04-03T13:38:22;7.60;55.70
21805;DHT22;11064;47.102;15.452;2023-04-03T13:40:55;8.10;55.30
21805;DHT22;11064;47.102;15.452;2023-04-03T13:43:29;8.20;53.90
21805;DHT22;11064;47.102;15.452;2023-04-03T13:46:05;8.20;54.90
21805;DHT22;11064;47.102;15.452;2023-04-03T13:48:36;8.20;55.20
21805;DHT22;11064;47.102;15.452;2023-04-03T13:51:26;8.20;54.90
21805;DHT22;11064;47.102;15.452;2023-04-03T13:53:57;8.30;54.30
21805;DHT22;11064;47.102;15.452;2023-04-03T13:56:31;8.20;53.60
21805;DHT22;11064;47.102;15.452;2023-04-03T13:59:21;8.00;53.70
21805;DHT22;11064;47.102;15.452;2023-04-03T14:01:54;7.90;54.50
21805;DHT22;11064;47.102;15.452;2023-04-03T14:04:21;7.80;54.60
21805;DHT22;11064;47.102;15.452;2023-04-03T14:06:48;7.80;53.40
21805;DHT22;11064;47.102;15.452;2023-04-03T14:09:16;7.80;53.60
21805;DHT22;11064;47.102;15.452;2023-04-03T14:11:43;7.90;53.30
21805;DHT22;11064;47.102;15.452;2023-04-03T14:14:21;8.00;54.40
21805;DHT22;11064;47.102;15.452;2023-04-03T14:16:53;8.10;53.80
21805;DHT22;11064;47.102;15.452;2023-04-03T14:19:37;7.70;53.10
21805;DHT22;11064;47.102;15.452;2023-04-03T14:22:21;7.70;53.10
21805;DHT22;11064;47.102;15.452;2023-04-03T14:24:49;7.70;53.90
21805;DHT22;11064;47.102;15.452;2023-04-03T14:27:34;7.80;53.50
21805;DHT22;11064;47.102;15.452;2023-04-03T14:30:00;7.90;54.40
21805;DHT22;11064;47.102;15.452;2023-04-03T14:32:27;7.70;53.20
21805;DHT22;11064;47.102;15.452;2023-04-03T14:34:53;7.50;53.90
21805;DHT22;11064;47.102;15.452;2023-04-03T14:37:23;7.60;54.40
21805;DHT22;11064;47.102;15.452;2023-04-03T14:39:51;7.60;53.40
21805;DHT22;11064;47.102;15.452;2023-04-03T14:42:28;7.50;53.60
21805;DHT22;11064;47.102;15.452;2023-04-03T14:44:57;7.20;54.00
21805;DHT22;11064;47.102;15.452;2023-04-03T14:47:26;7.10;54.20
21805;DHT22;11064;47.102;15.452;2023-04-03T14:49:53;7.10;54.80
21805;DHT22;11064;47.102;15.452;2023-04-03T14:52:27;7.10;54.30
21805;DHT22;11064;47.102;15.452;2023-04-03T14:54:53;7.00;54.20
21805;DHT22;11064;47.102;15.452;2023-04-03T14:57:19;7.00;54.10
21805;DHT22;11064;47.102;15.452;2023-04-03T14:59:47;6.90;54.80
21805;DHT22;11064;47.102;15.452;2023-04-03T15:02:36;6.90;54.60
21805;DHT22;11064;47.102;15.452;2023-04-03T15:05:05;6.90;55.00
21805;DHT22;11064;47.102;15.452;2023-04-03T15:07:41;6.90;56.00
21805;DHT22;11064;47.102;15.452;2023-04-03T15:10:28;6.70;54.40
21805;DHT22;11064;47.102;15.452;2023-04-03T15:12:54;6.50;55.90
21805;DHT22;11064;47.102;15.452;2023-04-03T15:15:22;6.20;55.30
21805;DHT22;11064;47.102;15.452;2023-04-03T15:17:52;6.10;56.40
21805;DHT22;11064;47.102;15.452;2023-04-03T15:20:27;6.00;56.80
21805;DHT22;11064;47.102;15.452;2023-04-03T15:22:56;5.80;57.00
21805;DHT22;11064;47.102;15.452;2023-04-03T15:25:23;5.80;56.70
21805;DHT22;11064;47.102;15.452;2023-04-03T15:27:49;5.80;56.50
21805;DHT22;11064;47.102;15.452;2023-04-03T15:30:17;5.70;56.80
21805;DHT22;11064;47.102;15.452;2023-04-03T15:32:43;5.70;56.40
21805;DHT22;11064;47.102;15.452;2023-04-03T15:35:09;5.80;57.10
21805;DHT22;11064;47.102;15.452;2023-04-03T15:37:35;5.70;57.40
21805;DHT22;11064;47.102;15.452;2023-04-03T15:40:01;5.60;56.50
21805;DHT22;11064;47.102;15.452;2023-04-03T15:42:27;5.60;56.70
21805;DHT22;11064;47.102;15.452;2023-04-03T15:44:53;5.70;56.70
21805;DHT22;11064;47.102;15.452;2023-04-03T15:47:19;5.60;56.70
21805;DHT22;11064;47.102;15.452;2023-04-03T15:49:45;5.60;57.10
21805;DHT22;11064;47.102;15.452;2023-04-03T15:52:11;5.40;56.40
21805;DHT22;11064;47.102;15.452;2023-04-03T15:54:36;5.40;57.00
21805;DHT22;11064;47.102;15.452;2023-04-03T15:57:02;5.40;57.30
21805;DHT22;11064;47.102;15.452;2023-04-03T15:59:28;5.40;57.70
21805;DHT22;11064;47.102;15.452;2023-04-03T16:01:56;5.40;58.80
21805;DHT22;11064;47.102;15.452;2023-04-03T16:04:22;5.40;58.30
21805;DHT22;11064;47.102;15.452;2023-04-03T16:06:49;5.40;58.50
21805;DHT22;11064;47.102;15.452;2023-04-03T16:09:16;5.30;58.00
21805;DHT22;11064;47.102;15.452;2023-04-03T16:11:42;5.30;57.20
21805;DHT22;11064;47.102;15.452;2023-04-03T16:14:09;5.30;56.90
21805;DHT22;11064;47.102;15.452;2023-04-03T16:16:35;5.20;56.20
21805;DHT22;11064;47.102;15.452;2023-04-03T16:19:02;5.20;56.80
21805;DHT22;11064;47.102;15.452;2023-04-03T16:21:28;5.10;56.10
21805;DHT22;11064;47.102;15.452;2023-04-03T16:23:57;5.00;56.70
21805;DHT22;11064;47.102;15.452;2023-04-03T16:26:24;5.00;56.80
21805;DHT22;11064;47.102;15.452;2023-04-03T16:28:51;4.90;57.10
21805;DHT22;11064;47.102;15.452;2023-04-03T16:31:17;4.80;57.70
21805;DHT22;11064;47.102;15.452;2023-04-03T16:33:43;4.70;58.80
21805;DHT22;11064;47.102;15.452;2023-04-03T16:36:08;4.70;57.60
21805;DHT22;11064;47.102;15.452;2023-04-03T16:38:35;4.70;57.30
21805;DHT22;11064;47.102;15.452;2023-04-03T16:41:01;4.60;58.10
21805;DHT22;11064;47.102;15.452;2023-04-03T16:43:31;4.40;57.40
21805;DHT22;11064;47.102;15.452;2023-04-03T16:45:57;4.30;58.40
21805;DHT22;11064;47.102;15.452;2023-04-03T16:48:23;4.20;59.50
21805;DHT22;11064;47.102;15.452;2023-04-03T16:50:49;4.10;59.20
21805;DHT22;11064;47.102;15.452;2023-04-03T16:53:23;4.00;58.90
21805;DHT22;11064;47.102;15.452;2023-04-03T16:55:50;4.00;59.40
21805;DHT22;11064;47.102;15.452;2023-04-03T16:58:17;4.10;57.20
21805;DHT22;11064;47.102;15.452;2023-04-03T17:00:43;4.10;57.50
21805;DHT22;11064;47.102;15.452;2023-04-03T17:03:09;4.00;56.70
21805;DHT22;11064;47.102;15.452;2023-04-03T17:05:35;3.80;56.90
21805;DHT22;11064;47.102;15.452;2023-04-03T17:08:01;3.70;57.60
21805;DHT22;11064;47.102;15.452;2023-04-03T17:10:28;3.60;57.60
21805;DHT22;11064;47.102;15.452;2023-04-03T17:12:54;3.50;58.00
21805;DHT22;11064;47.102;15.452;2023-04-03T17:15:20;3.30;58.30
21805;DHT22;11064;47.102;15.452;2023-04-03T17:17:47;3.30;58.80
21805;DHT22;11064;47.102;15.452;2023-04-03T17:20:14;3.10;58.80
21805;DHT22;11064;47.102;15.452;2023-04-03T17:22:40;3.10;58.40
21805;DHT22;11064;47.102;15.452;2023-04-03T17:25:07;3.10;58.60
21805;DHT22;11064;47.102;15.452;2023-04-03T17:27:32;3.00;58.80
21805;DHT22;11064;47.102;15.452;2023-04-03T17:29:58;2.90;58.90
21805;DHT22;11064;47.102;15.452;2023-04-03T17:32:24;2.80;59.40
21805;DHT22;11064;47.102;15.452;2023-04-03T17:34:51;2.80;59.80
21805;DHT22;11064;47.102;15.452;2023-04-03T17:37:17;2.80;59.50
21805;DHT22;11064;47.102;15.452;2023-04-03T17:39:43;2.70;59.90
21805;DHT22;11064;47.102;15.452;2023-04-03T17:42:10;2.60;60.00
21805;DHT22;11064;47.102;15.452;2023-04-03T17:44:36;2.60;59.90
21805;DHT22;11064;47.102;15.452;2023-04-03T17:47:02;2.60;60.10
21805;DHT22;11064;47.102;15.452;2023-04-03T17:49:28;2.50;60.30
21805;DHT22;11064;47.102;15.452;2023-04-03T17:51:54;2.40;61.40
21805;DHT22;11064;47.102;15.452;2023-04-03T17:54:21;2.40;60.20
21805;DHT22;11064;47.102;15.452;2023-04-03T17:56:47;2.30;60.80
21805;DHT22;11064;47.102;15.452;2023-04-03T17:59:14;2.20;61.80
21805;DHT22;11064;47.102;15.452;2023-04-03T18:01:43;2.00;62.20
21805;DHT22;11064;47.102;15.452;2023-04-03T18:04:11;1.90;62.80
21805;DHT22;11064;47.102;15.452;2023-04-03T18:06:45;1.90;62.80
21805;DHT22;11064;47.102;15.452;2023-04-03T18:09:21;1.90;63.10
21805;DHT22;11064;47.102;15.452;2023-04-03T18:11:51;1.80;63.40
21805;DHT22;11064;47.102;15.452;2023-04-03T18:14:22;1.70;63.20
21805;DHT22;11064;47.102;15.452;2023-04-03T18:16:51;1.60;63.40
21805;DHT22;11064;47.102;15.452;2023-04-03T18:19:17;1.60;65.00
21805;DHT22;11064;47.102;15.452;2023-04-03T18:21:43;1.50;64.40
21805;DHT22;11064;47.102;15.452;2023-04-03T18:24:14;1.30;64.30
21805;DHT22;11064;47.102;15.452;2023-04-03T18:26:43;1.20;64.30
21805;DHT22;11064;47.102;15.452;2023-04-03T18:29:11;1.20;64.90
21805;DHT22;11064;47.102;15.452;2023-04-03T18:31:41;1.10;65.20
21805;DHT22;11064;47.102;15.452;2023-04-03T18:34:08;1.20;66.00
21805;DHT22;11064;47.102;15.452;2023-04-03T18:36:34;1.30;64.20
21805;DHT22;11064;47.102;15.452;2023-04-03T18:39:01;1.30;64.50
21805;DHT22;11064;47.102;15.452;2023-04-03T18:41:32;1.30;63.60
21805;DHT22;11064;47.102;15.452;2023-04-03T18:44:02;1.20;64.50
21805;DHT22;11064;47.102;15.452;2023-04-03T18:46:31;1.10;64.10
21805;DHT22;11064;47.102;15.452;2023-04-03T18:48:59;1.20;64.30
21805;DHT22;11064;47.102;15.452;2023-04-03T18:51:25;1.10;63.90
21805;DHT22;11064;47.102;15.452;2023-04-03T18:53:52;1.00;63.80
21805;DHT22;11064;47.102;15.452;2023-04-03T18:56:20;0.90;64.60
21805;DHT22;11064;47.102;15.452;2023-04-03T18:58:47;0.80;65.70
21805;DHT22;11064;47.102;15.452;2023-04-03T19:01:14;0.90;64.70
21805;DHT22;11064;47.102;15.452;2023-04-03T19:03:40;0.90;64.90
21805;DHT22;11064;47.102;15.452;2023-04-03T19:06:07;0.80;65.40
21805;DHT22;11064;47.102;15.452;2023-04-03T19:08:33;0.80;64.80
21805;DHT22;11064;47.102;15.452;2023-04-03T19:11:00;0.70;66.00
21805;DHT22;11064;47.102;15.452;2023-04-03T19:13:26;0.50;66.30
21805;DHT22;11064;47.102;15.452;2023-04-03T19:15:53;0.60;66.20
21805;DHT22;11064;47.102;15.452;2023-04-03T19:18:23;0.70;65.40
21805;DHT22;11064;47.102;15.452;2023-04-03T19:20:54;0.80;65.20
21805;DHT22;11064;47.102;15.452;2023-04-03T19:23:22;0.80;65.30
21805;DHT22;11064;47.102;15.452;2023-04-03T19:26:00;1.00;64.80
21805;DHT22;11064;47.102;15.452;2023-04-03T19:28:27;1.00;64.60
21805;DHT22;11064;47.102;15.452;2023-04-03T19:30:53;0.90;64.70
21805;DHT22;11064;47.102;15.452;2023-04-03T19:33:20;1.00;64.90
21805;DHT22;11064;47.102;15.452;2023-04-03T19:35:47;1.10;64.20
21805;DHT22;11064;47.102;15.452;2023-04-03T19:38:13;1.30;63.60
21805;DHT22;11064;47.102;15.452;2023-04-03T19:40:39;1.20;63.70
21805;DHT22;11064;47.102;15.452;2023-04-03T19:43:12;1.20;63.50
21805;DHT22;11064;47.102;15.452;2023-04-03T19:45:40;1.10;63.70
21805;DHT22;11064;47.102;15.452;2023-04-03T19:48:07;1.00;64.10
21805;DHT22;11064;47.102;15.452;2023-04-03T19:50:33;1.20;62.70
21805;DHT22;11064;47.102;15.452;2023-04-03T19:53:00;1.30;62.40
21805;DHT22;11064;47.102;15.452;2023-04-03T19:55:27;1.10;62.90
21805;DHT22;11064;47.102;15.452;2023-04-03T19:57:59;1.20;62.30
21805;DHT22;11064;47.102;15.452;2023-04-03T20:00:27;1.30;62.30
21805;DHT22;11064;47.102;15.452;2023-04-03T20:02:53;1.20;61.50
21805;DHT22;11064;47.102;15.452;2023-04-03T20:05:21;1.30;61.40
21805;DHT22;11064;47.102;15.452;2023-04-03T20:07:47;1.30;61.10
21805;DHT22;11064;47.102;15.452;2023-04-03T20:10:14;1.40;61.10
21805;DHT22;11064;47.102;15.452;2023-04-03T20:12:40;1.30;61.10
21805;DHT22;11064;47.102;15.452;2023-04-03T20:15:07;1.30;60.90
21805;DHT22;11064;47.102;15.452;2023-04-03T20:17:35;1.30;60.90
21805;DHT22;11064;47.102;15.452;2023-04-03T20:20:02;1.30;61.10
21805;DHT22;11064;47.102;15.452;2023-04-03T20:22:30;1.40;60.40
21805;DHT22;11064;47.102;15.452;2023-04-03T20:24:57;1.40;60.00
21805;DHT22;11064;47.102;15.452;2023-04-03T20:27:24;1.30;60.20
21805;DHT22;11064;47.102;15.452;2023-04-03T20:29:51;1.30;60.00
21805;DHT22;11064;47.102;15.452;2023-04-03T20:32:18;1.20;60.30
21805;DHT22;11064;47.102;15.452;2023-04-03T20:34:44;1.10;60.50
21805;DHT22;11064;47.102;15.452;2023-04-03T20:37:11;1.10;60.80
21805;DHT22;11064;47.102;15.452;2023-04-03T20:39:37;1.00;60.90
21805;DHT22;11064;47.102;15.452;2023-04-03T20:42:03;1.10;61.10
21805;DHT22;11064;47.102;15.452;2023-04-03T20:44:30;1.00;61.10
21805;DHT22;11064;47.102;15.452;2023-04-03T20:46:57;1.00;61.00
21805;DHT22;11064;47.102;15.452;2023-04-03T20:49:23;0.90;61.30
21805;DHT22;11064;47.102;15.452;2023-04-03T20:51:50;0.80;62.00
21805;DHT22;11064;47.102;15.452;2023-04-03T20:54:16;0.80;62.20
21805;DHT22;11064;47.102;15.452;2023-04-03T20:56:43;0.80;62.40
21805;DHT22;11064;47.102;15.452;2023-04-03T20:59:10;0.70;63.00
21805;DHT22;11064;47.102;15.452;2023-04-03T21:01:36;0.60;63.40
21805;DHT22;11064;47.102;15.452;2023-04-03T21:04:29;0.60;63.50
21805;DHT22;11064;47.102;15.452;2023-04-03T21:21:03;1.00;63.70
21805;DHT22;11064;47.102;15.452;2023-04-03T21:23:30;1.20;63.30
21805;DHT22;11064;47.102;15.452;2023-04-03T21:25:59;1.20;63.00
21805;DHT22;11064;47.102;15.452;2023-04-03T21:28:26;1.10;63.00
21805;DHT22;11064;47.102;15.452;2023-04-03T21:30:52;1.20;62.50
21805;DHT22;11064;47.102;15.452;2023-04-03T21:33:17;1.30;62.20
21805;DHT22;11064;47.102;15.452;2023-04-03T21:35:43;1.20;62.90
21805;DHT22;11064;47.102;15.452;2023-04-03T21:38:09;1.30;63.10
21805;DHT22;11064;47.102;15.452;2023-04-03T21:40:34;1.20;63.10